Informações Meteorológicas
METAR FOR UHSS
ADDS - METARS form results

(2019 UTC 03 August 2021)
Data provider http://aviationweather.gov/metar/data/
 
METAR text: UHSS 032000Z 01003MPS 9999 BKN015CB 15/14 Q1011 R19/250160 NOSIG RMK MT OBSC QFE757/1010
Conditions at: UHSS (JUZNO-SAHALINSK , RU) observed 2000 UTC 03 August 2021
Temperature: 15.0°C (59°F)
Dewpoint: 14.0°C (57°F) [RH = 94%]
Pressure (altimeter): 29.85 inches Hg (1011.0 mb)
Winds: from the N (10 degrees) at 7 MPH (6 knots; 3.1 m/s)
Visibility: 6 or more miles (10+ km)
Ceiling: 1500 feet AGL
Clouds: broken clouds at 1500 feet AGL
Weather: no significant weather observed at this time

METAR text: UHSS 031930Z 34003MPS 9999 BKN006 BKN014CB 15/14 Q1011 R19/250160 NOSIG RMK MT OBSC QFE757/1010
Conditions at: UHSS (JUZNO-SAHALINSK , RU) observed 1930 UTC 03 August 2021
Temperature: 15.0°C (59°F)
Dewpoint: 14.0°C (57°F) [RH = 94%]
Pressure (altimeter): 29.85 inches Hg (1011.0 mb)
Winds: from the NNW (340 degrees) at 7 MPH (6 knots; 3.1 m/s)
Visibility: 6 or more miles (10+ km)
Ceiling: 600 feet AGL
Clouds: broken clouds at 600 feet AGL
broken clouds at 1400 feet AGL
Weather: no significant weather observed at this time

Forecast for: UHSS (JUZNO-SAHALINSK , RU)
Text: TAF UHSS 031700Z 0318/0424 12003MPS 9999 BKN015CB
Forecast period: 1800 UTC 03 August 2021 to 0000 UTC 05 August 2021
Forecast type: FROM: standard forecast or significant change
Winds: from the ESE (120 degrees) at 7 MPH (6 knots; 3.1 m/s)
Visibility: 6 or more miles (10+ km)
Ceiling: 1500 feet AGL
Clouds: broken clouds at 1500 feet AGL
Weather: no significant weather forecast for this period
Text: TEMPO 0318/0424 -SHRA
Forecast period: 1800 UTC 03 August 2021 to 0000 UTC 05 August 2021
Forecast type: TEMPORARY: The following changes expected for less than half the time period
Visibility: missing
Ceiling: unknown
Clouds: missing
Weather: -SHRA  (light rain showers)

 Mapa do Aeroporto

 Informações da Pista
Pista 01 Tamanho da pista 11155 ft Largura da pista 148 ft
Elevação da pista 44 ft Ranhura da pista 0 ft Proa da pista 1
Pista 19 Tamanho da pista 11155 ft Largura da pista 148 ft
Elevação da pista 49 ft Ranhura da pista 2080 ft Proa da pista 181

 Frequências do Aeroporto
Tipo GCA Nome RDR Frequência 120.6 MHZ
Tipo TWR Nome TWR Frequência 120.6 MHZ

 Auxílios de Navegação Próximos Ao Aeroporto
Tipo NDB Nome Khomutovo Frequência 505 KHZ
Tipo NDB Nome Khomutovo Frequência 505 KHZ



Powered by Virtual Airlines Manager [v2.6.2]